createdAt,value
2017-11-17T00:00:14.522Z,0
2017-11-17T00:01:16.399Z,0
2017-11-17T00:02:18.280Z,0
2017-11-17T00:03:32.409Z,0
2017-11-17T00:04:34.291Z,0
2017-11-17T00:05:36.168Z,0
2017-11-17T00:06:38.049Z,0
2017-11-17T00:07:39.869Z,0
2017-11-17T00:08:41.683Z,0
2017-11-17T00:09:43.564Z,0
2017-11-17T00:10:45.445Z,0
2017-11-17T00:11:47.326Z,0
2017-11-17T00:13:01.479Z,0
2017-11-17T00:14:03.361Z,0
2017-11-17T00:15:05.242Z,0
2017-11-17T00:16:07.131Z,0
2017-11-17T00:17:08.943Z,0
2017-11-17T00:18:10.756Z,0
2017-11-17T00:19:12.638Z,0
2017-11-17T00:20:14.516Z,0
2017-11-17T00:21:16.401Z,0
2017-11-17T00:22:30.601Z,0
2017-11-17T00:23:32.480Z,0
2017-11-17T00:24:34.361Z,0
2017-11-17T00:25:36.243Z,0
2017-11-17T00:26:38.062Z,0
2017-11-17T00:27:39.883Z,0
2017-11-17T00:28:41.759Z,0
2017-11-17T00:29:43.636Z,0
2017-11-17T00:30:45.515Z,0
2017-11-17T00:31:59.664Z,0
2017-11-17T00:33:01.555Z,0
2017-11-17T00:34:03.428Z,0
2017-11-17T00:35:05.309Z,0
2017-11-17T00:36:07.129Z,0
2017-11-17T00:37:08.943Z,0
2017-11-17T00:38:10.824Z,0
2017-11-17T00:39:12.700Z,0
2017-11-17T00:40:14.581Z,0
2017-11-17T00:41:28.780Z,0
2017-11-17T00:42:30.663Z,0
2017-11-17T00:43:32.539Z,0
2017-11-17T00:44:34.425Z,0
2017-11-17T00:45:36.241Z,0
2017-11-17T00:46:38.056Z,0
2017-11-17T00:47:39.936Z,0
2017-11-17T00:48:41.814Z,0
2017-11-17T00:49:43.695Z,0
2017-11-17T00:50:57.846Z,0
2017-11-17T00:51:59.728Z,0
2017-11-17T00:53:01.608Z,0
2017-11-17T00:54:03.489Z,0
2017-11-17T00:55:05.311Z,0
2017-11-17T00:56:07.125Z,0
2017-11-17T00:57:09.006Z,0
2017-11-17T00:58:10.885Z,0
2017-11-17T00:59:12.768Z,0
2017-11-17T01:00:26.917Z,0
2017-11-17T01:01:28.799Z,0
2017-11-17T01:02:30.678Z,0
2017-11-17T01:03:32.558Z,0
2017-11-17T01:04:34.380Z,0
2017-11-17T01:05:36.195Z,0
2017-11-17T01:06:38.080Z,0
2017-11-17T01:07:39.952Z,0
2017-11-17T01:08:41.835Z,0
2017-11-17T01:09:55.985Z,0
2017-11-17T01:10:57.867Z,0
2017-11-17T01:11:59.747Z,0
2017-11-17T01:13:01.628Z,0
2017-11-17T01:14:03.444Z,0
2017-11-17T01:15:05.263Z,0
2017-11-17T01:16:07.142Z,0
2017-11-17T01:17:09.021Z,0
2017-11-17T01:18:10.904Z,0
2017-11-17T01:19:25.036Z,0
2017-11-17T01:20:26.922Z,0
2017-11-17T01:21:28.830Z,0
2017-11-17T01:22:30.683Z,0
2017-11-17T01:23:32.502Z,0
2017-11-17T01:24:34.316Z,0
2017-11-17T01:25:36.193Z,0
2017-11-17T01:26:38.072Z,0
2017-11-17T01:27:39.952Z,0
2017-11-17T01:28:54.105Z,0
2017-11-17T01:29:55.984Z,0
2017-11-17T01:30:57.863Z,0
2017-11-17T01:31:59.754Z,0
2017-11-17T01:33:01.567Z,0
2017-11-17T01:34:03.380Z,0
2017-11-17T01:35:05.260Z,0
2017-11-17T01:36:07.139Z,0
2017-11-17T01:37:09.019Z,0
2017-11-17T01:38:23.173Z,0
2017-11-17T01:39:25.052Z,0
2017-11-17T01:40:26.932Z,0
2017-11-17T01:41:28.820Z,0
2017-11-17T01:42:30.630Z,0
2017-11-17T01:43:32.444Z,0
2017-11-17T01:44:34.325Z,0
2017-11-17T01:45:36.205Z,0
2017-11-17T01:46:38.088Z,0
2017-11-17T01:47:52.238Z,0
2017-11-17T01:48:54.119Z,0
2017-11-17T01:49:55.997Z,0
2017-11-17T01:50:57.886Z,0
2017-11-17T01:51:59.701Z,0
2017-11-17T01:53:01.512Z,0
2017-11-17T01:54:03.392Z,0
2017-11-17T01:55:05.270Z,0
2017-11-17T01:56:07.152Z,0
2017-11-17T01:57:21.302Z,0
2017-11-17T01:58:23.184Z,0
2017-11-17T01:59:25.066Z,0
2017-11-17T02:00:26.954Z,0
2017-11-17T02:01:28.772Z,0
2017-11-17T02:02:30.585Z,0
2017-11-17T02:03:32.466Z,0
2017-11-17T02:04:34.344Z,0
2017-11-17T02:05:36.228Z,0
2017-11-17T02:06:50.377Z,0
2017-11-17T02:07:52.259Z,0
2017-11-17T02:08:54.145Z,0
2017-11-17T02:09:56.021Z,0
2017-11-17T02:10:57.839Z,0
2017-11-17T02:11:59.656Z,0
2017-11-17T02:13:01.534Z,0
2017-11-17T02:14:03.421Z,0
2017-11-17T02:15:05.294Z,0
2017-11-17T02:16:19.445Z,0
2017-11-17T02:17:21.325Z,0
2017-11-17T02:18:23.205Z,0
2017-11-17T02:19:25.089Z,0
2017-11-17T02:20:26.913Z,0
2017-11-17T02:21:28.717Z,0
2017-11-17T02:22:30.595Z,0
2017-11-17T02:23:32.470Z,0
2017-11-17T02:24:34.346Z,0
2017-11-17T02:25:48.495Z,0
2017-11-17T02:26:50.374Z,0
2017-11-17T02:27:52.254Z,0
2017-11-17T02:28:54.134Z,0
2017-11-17T02:29:55.951Z,0
2017-11-17T02:30:57.770Z,0
2017-11-17T02:31:59.647Z,0
2017-11-17T02:33:01.525Z,0
2017-11-17T02:34:03.402Z,0
2017-11-17T02:35:17.552Z,0
2017-11-17T02:36:19.429Z,0
2017-11-17T02:37:21.308Z,0
2017-11-17T02:38:23.191Z,0
2017-11-17T02:39:25.005Z,0
2017-11-17T02:40:26.817Z,0
2017-11-17T02:41:28.697Z,0
2017-11-17T02:42:30.574Z,0
2017-11-17T02:43:32.455Z,0
2017-11-17T02:44:46.652Z,0
2017-11-17T02:45:48.529Z,0
2017-11-17T02:46:50.412Z,0
2017-11-17T02:47:52.291Z,0
2017-11-17T02:48:54.108Z,0
2017-11-17T02:49:55.924Z,0
2017-11-17T02:50:57.817Z,0
2017-11-17T02:51:59.687Z,0
2017-11-17T02:53:01.559Z,0
2017-11-17T02:54:15.706Z,0
2017-11-17T02:55:17.585Z,0
2017-11-17T02:56:19.461Z,0
2017-11-17T02:57:21.340Z,0
2017-11-17T02:58:23.154Z,0
2017-11-17T02:59:24.970Z,0
2017-11-17T03:00:26.845Z,0
2017-11-17T03:01:28.725Z,0
2017-11-17T03:02:30.603Z,0
2017-11-17T03:03:44.803Z,0
2017-11-17T03:04:46.683Z,0
2017-11-17T03:05:48.562Z,0
2017-11-17T03:06:50.440Z,0
2017-11-17T03:07:52.259Z,0
2017-11-17T03:08:54.076Z,0
2017-11-17T03:09:55.954Z,0
2017-11-17T03:10:57.830Z,0
2017-11-17T03:11:59.709Z,0
2017-11-17T03:13:13.859Z,0
2017-11-17T03:14:15.734Z,0
2017-11-17T03:15:17.627Z,0
2017-11-17T03:16:19.490Z,0
2017-11-17T03:17:21.306Z,0
2017-11-17T03:18:23.118Z,0
2017-11-17T03:19:24.994Z,0
2017-11-17T03:20:26.874Z,0
2017-11-17T03:21:28.751Z,0
2017-11-17T03:22:42.903Z,0
2017-11-17T03:23:44.779Z,0
2017-11-17T03:24:46.657Z,0
2017-11-17T03:25:48.537Z,0
2017-11-17T03:26:50.351Z,0
2017-11-17T03:27:52.166Z,0
2017-11-17T03:28:54.046Z,0
2017-11-17T03:29:55.922Z,0
2017-11-17T03:30:57.802Z,0
2017-11-17T03:32:11.952Z,0
2017-11-17T03:33:13.827Z,0
2017-11-17T03:34:15.706Z,0
2017-11-17T03:35:17.586Z,0
2017-11-17T03:36:19.404Z,0
2017-11-17T03:37:21.222Z,0
2017-11-17T03:38:23.099Z,0
2017-11-17T03:39:24.973Z,0
2017-11-17T03:40:26.851Z,0
2017-11-17T03:41:40.999Z,0
2017-11-17T03:42:42.876Z,0
2017-11-17T03:43:44.752Z,0
2017-11-17T03:44:46.640Z,0
2017-11-17T03:45:48.444Z,0
2017-11-17T03:46:50.261Z,0
2017-11-17T03:47:52.139Z,0
2017-11-17T03:48:54.013Z,0
2017-11-17T03:49:55.893Z,0
2017-11-17T03:51:10.094Z,0
2017-11-17T03:52:11.978Z,0
2017-11-17T03:53:13.849Z,0
2017-11-17T03:54:15.728Z,0
2017-11-17T03:55:17.542Z,0
2017-11-17T03:56:19.359Z,0
2017-11-17T03:57:21.239Z,0
2017-11-17T03:58:23.115Z,0
2017-11-17T03:59:24.996Z,0
2017-11-17T04:00:39.140Z,0
2017-11-17T04:01:41.020Z,0
2017-11-17T04:02:42.899Z,0
2017-11-17T04:03:44.779Z,0
2017-11-17T04:04:46.597Z,0
2017-11-17T04:05:48.404Z,0
2017-11-17T04:06:50.283Z,0
2017-11-17T04:07:52.121Z,0
2017-11-17T04:08:53.933Z,0
2017-11-17T04:10:08.077Z,0
2017-11-17T04:11:09.965Z,0
2017-11-17T04:12:11.836Z,0
2017-11-17T04:13:13.719Z,0
2017-11-17T04:14:15.532Z,0
2017-11-17T04:15:17.346Z,0
2017-11-17T04:16:19.223Z,0
2017-11-17T04:17:21.104Z,0
2017-11-17T04:18:22.981Z,0
2017-11-17T04:19:37.129Z,0
2017-11-17T04:20:39.004Z,0
2017-11-17T04:21:40.886Z,0
2017-11-17T04:22:42.758Z,0
2017-11-17T04:23:44.572Z,0
2017-11-17T04:24:46.387Z,0
2017-11-17T04:25:48.267Z,0
2017-11-17T04:26:50.141Z,0
2017-11-17T04:27:52.015Z,0
2017-11-17T04:29:06.210Z,0
2017-11-17T04:30:08.089Z,0
2017-11-17T04:31:09.968Z,0
2017-11-17T04:32:11.846Z,0
2017-11-17T04:33:13.661Z,0
2017-11-17T04:34:15.474Z,0
2017-11-17T04:35:17.352Z,0
2017-11-17T04:36:19.228Z,0
2017-11-17T04:37:21.104Z,0
2017-11-17T04:38:35.253Z,0
2017-11-17T04:39:37.128Z,0
2017-11-17T04:40:39.006Z,0
2017-11-17T04:41:40.898Z,0
2017-11-17T04:42:42.697Z,0
2017-11-17T04:43:44.512Z,0
2017-11-17T04:44:46.389Z,0
2017-11-17T04:45:48.266Z,0
2017-11-17T04:46:50.140Z,0
2017-11-17T04:48:04.288Z,0
2017-11-17T04:49:06.173Z,0
2017-11-17T04:50:08.046Z,0
2017-11-17T04:51:09.923Z,0
2017-11-17T04:52:11.740Z,0
2017-11-17T04:53:13.550Z,0
2017-11-17T04:54:15.426Z,0
2017-11-17T04:55:17.305Z,0
2017-11-17T04:56:19.180Z,0
2017-11-17T04:57:33.327Z,0
2017-11-17T04:58:35.205Z,0
2017-11-17T04:59:37.085Z,0
2017-11-17T05:00:38.964Z,0
2017-11-17T05:01:40.777Z,0
2017-11-17T05:02:42.601Z,0
2017-11-17T05:03:44.468Z,0
2017-11-17T05:04:46.345Z,0
2017-11-17T05:05:48.223Z,0
2017-11-17T05:07:02.372Z,0
2017-11-17T05:08:04.254Z,0
2017-11-17T05:09:06.134Z,0
2017-11-17T05:10:08.014Z,0
2017-11-17T05:11:09.832Z,0
2017-11-17T05:12:11.640Z,0
2017-11-17T05:13:13.521Z,0
2017-11-17T05:14:15.399Z,0
2017-11-17T05:15:17.278Z,0
2017-11-17T05:16:31.424Z,0
2017-11-17T05:17:33.302Z,0
2017-11-17T05:18:35.182Z,0
2017-11-17T05:19:37.063Z,0
2017-11-17T05:20:38.875Z,0
2017-11-17T05:21:40.692Z,0
2017-11-17T05:22:42.571Z,0
2017-11-17T05:23:44.448Z,0
2017-11-17T05:24:46.327Z,0
2017-11-17T05:26:00.480Z,0
2017-11-17T05:27:02.352Z,0
2017-11-17T05:28:04.231Z,0
2017-11-17T05:29:06.110Z,0
2017-11-17T05:30:07.928Z,0
2017-11-17T05:31:09.743Z,0
2017-11-17T05:32:11.624Z,0
2017-11-17T05:33:13.528Z,0
2017-11-17T05:34:15.410Z,0
2017-11-17T05:35:29.612Z,0
2017-11-17T05:36:31.487Z,0
2017-11-17T05:37:33.367Z,0
2017-11-17T05:38:35.251Z,0
2017-11-17T05:39:37.059Z,0
2017-11-17T05:40:38.882Z,0
2017-11-17T05:41:40.754Z,0
2017-11-17T05:42:42.629Z,0
2017-11-17T05:43:44.509Z,0
2017-11-17T05:44:58.657Z,0
2017-11-17T05:46:00.534Z,0
2017-11-17T05:47:02.418Z,0
2017-11-17T05:48:04.290Z,0
2017-11-17T05:49:06.108Z,0
2017-11-17T05:50:07.924Z,4
2017-11-17T05:51:09.796Z,4
2017-11-17T05:52:11.669Z,4
2017-11-17T05:53:13.545Z,4
2017-11-17T05:54:27.740Z,0
2017-11-17T05:55:29.616Z,4
2017-11-17T05:56:31.495Z,4
2017-11-17T05:57:33.374Z,4
2017-11-17T05:58:35.189Z,4
2017-11-17T05:59:37.004Z,8
2017-11-17T06:00:38.883Z,4
2017-11-17T06:01:40.759Z,8
2017-11-17T06:02:42.634Z,8
2017-11-17T06:03:56.829Z,8
2017-11-17T06:04:58.707Z,12
2017-11-17T06:06:00.586Z,12
2017-11-17T06:07:02.467Z,12
2017-11-17T06:08:04.277Z,16
2017-11-17T06:09:06.093Z,20
2017-11-17T06:10:07.973Z,20
2017-11-17T06:11:09.851Z,20
2017-11-17T06:12:11.727Z,28
2017-11-17T06:13:25.875Z,28
2017-11-17T06:14:27.752Z,32
2017-11-17T06:15:29.630Z,32
2017-11-17T06:16:31.511Z,32
2017-11-17T06:17:33.323Z,36
2017-11-17T06:18:35.139Z,44
2017-11-17T06:19:37.015Z,44
2017-11-17T06:20:38.892Z,52
2017-11-17T06:21:40.770Z,52
2017-11-17T06:22:54.968Z,52
2017-11-17T06:23:56.846Z,56
2017-11-17T06:24:58.725Z,56
2017-11-17T06:26:00.604Z,56
2017-11-17T06:27:02.417Z,60
2017-11-17T06:28:04.232Z,72
2017-11-17T06:29:06.115Z,72
2017-11-17T06:30:07.989Z,76
2017-11-17T06:31:09.873Z,88
2017-11-17T06:32:24.021Z,104
2017-11-17T06:33:25.898Z,116
2017-11-17T06:34:27.783Z,136
2017-11-17T06:35:29.660Z,144
2017-11-17T06:36:31.477Z,176
2017-11-17T06:37:33.297Z,196
2017-11-17T06:38:35.136Z,216
2017-11-17T06:39:37.014Z,260
2017-11-17T06:40:38.895Z,280
2017-11-17T06:41:53.096Z,268
2017-11-17T06:42:54.973Z,288
2017-11-17T06:43:56.854Z,316
2017-11-17T06:44:58.735Z,332
2017-11-17T06:46:00.552Z,380
2017-11-17T06:47:02.369Z,360
2017-11-17T06:48:04.249Z,352
2017-11-17T06:49:06.128Z,380
2017-11-17T06:50:08.009Z,384
2017-11-17T06:51:22.160Z,384
2017-11-17T06:52:24.040Z,412
2017-11-17T06:53:25.922Z,424
2017-11-17T06:54:27.805Z,420
2017-11-17T06:55:29.619Z,424
2017-11-17T06:56:31.435Z,472
2017-11-17T06:57:33.313Z,468
2017-11-17T06:58:35.193Z,496
2017-11-17T06:59:37.072Z,508
2017-11-17T07:00:51.223Z,528
2017-11-17T07:01:53.101Z,580
2017-11-17T07:02:54.982Z,620
2017-11-17T07:03:56.868Z,648
2017-11-17T07:04:58.679Z,664
2017-11-17T07:06:00.497Z,712
2017-11-17T07:07:02.377Z,724
2017-11-17T07:08:04.255Z,744
2017-11-17T07:09:06.140Z,760
2017-11-17T07:10:20.285Z,776
2017-11-17T07:11:22.164Z,792
2017-11-17T07:12:24.047Z,852
2017-11-17T07:13:25.928Z,900
2017-11-17T07:14:27.744Z,936
2017-11-17T07:15:29.561Z,988
2017-11-17T07:16:31.443Z,1060
2017-11-17T07:17:33.324Z,1192
2017-11-17T07:18:35.202Z,1256
2017-11-17T07:19:49.354Z,1324
2017-11-17T07:20:51.233Z,1396
2017-11-17T07:21:53.115Z,1484
2017-11-17T07:22:54.997Z,1604
2017-11-17T07:23:56.817Z,1548
2017-11-17T07:24:58.636Z,1664
2017-11-17T07:26:00.513Z,1664
2017-11-17T07:27:02.393Z,1648
2017-11-17T07:28:04.273Z,1664
2017-11-17T07:29:18.437Z,1496
2017-11-17T07:30:20.302Z,1472
2017-11-17T07:31:22.185Z,1516
2017-11-17T07:32:24.068Z,1504
2017-11-17T07:33:25.886Z,1388
2017-11-17T07:34:27.720Z,1376
2017-11-17T07:35:29.586Z,1400
2017-11-17T07:36:31.468Z,1384
2017-11-17T07:37:33.348Z,1252
2017-11-17T07:38:47.564Z,1264
2017-11-17T07:39:49.412Z,1300
2017-11-17T07:40:51.292Z,1288
2017-11-17T07:41:53.176Z,1300
2017-11-17T07:42:54.991Z,1272
2017-11-17T07:43:56.810Z,1196
2017-11-17T07:44:58.692Z,1172
2017-11-17T07:46:00.575Z,1124
2017-11-17T07:47:02.456Z,1064
2017-11-17T07:48:16.607Z,1032
2017-11-17T07:49:18.486Z,956
2017-11-17T07:50:20.369Z,920
2017-11-17T07:51:22.251Z,892
2017-11-17T07:52:24.066Z,872
2017-11-17T07:53:25.882Z,832
2017-11-17T07:54:27.762Z,852
2017-11-17T07:55:29.643Z,864
2017-11-17T07:56:31.524Z,892
2017-11-17T07:57:45.675Z,912
2017-11-17T07:58:47.558Z,884
2017-11-17T07:59:49.439Z,900
2017-11-17T08:00:51.320Z,848
2017-11-17T08:01:53.135Z,796
2017-11-17T08:02:54.956Z,844
2017-11-17T08:03:56.831Z,896
2017-11-17T08:04:58.711Z,836
2017-11-17T08:06:00.590Z,824
2017-11-17T08:07:14.742Z,804
2017-11-17T08:08:16.619Z,796
2017-11-17T08:09:18.502Z,852
2017-11-17T08:10:20.383Z,852
2017-11-17T08:11:23.181Z,876
2017-11-17T08:12:31.260Z,932
2017-11-17T08:13:33.143Z,1004
2017-11-17T08:14:35.023Z,1080
2017-11-17T08:15:36.907Z,1164
2017-11-17T08:16:51.060Z,1424
2017-11-17T08:17:52.939Z,1660
2017-11-17T08:18:54.821Z,1792
2017-11-17T08:19:56.704Z,1856
2017-11-17T08:20:58.521Z,1948
2017-11-17T08:22:00.338Z,2076
2017-11-17T08:23:02.216Z,2208
2017-11-17T08:24:04.098Z,2184
2017-11-17T08:25:05.977Z,2008
2017-11-17T08:26:20.128Z,2024
2017-11-17T08:27:22.009Z,2280
2017-11-17T08:28:23.894Z,2264
2017-11-17T08:29:25.778Z,2228
2017-11-17T08:30:27.601Z,2368
2017-11-17T08:31:29.414Z,2512
2017-11-17T08:32:31.296Z,2436
2017-11-17T08:33:33.177Z,2528
2017-11-17T08:34:35.063Z,2532
2017-11-17T08:35:49.216Z,2432
2017-11-17T08:36:51.095Z,2348
2017-11-17T08:37:52.978Z,2036
2017-11-17T08:38:54.865Z,1772
2017-11-17T08:39:56.681Z,1740
2017-11-17T08:40:58.515Z,1720
2017-11-17T08:42:00.399Z,1764
2017-11-17T08:43:02.276Z,1760
2017-11-17T08:44:04.157Z,1724
2017-11-17T08:45:18.313Z,1748
2017-11-17T08:46:20.193Z,1712
2017-11-17T08:47:22.076Z,1620
2017-11-17T08:48:23.957Z,1748
2017-11-17T08:49:25.775Z,1680
2017-11-17T08:50:27.596Z,1896
2017-11-17T08:51:29.477Z,1984
2017-11-17T08:52:31.361Z,2120
2017-11-17T08:53:33.241Z,2220
2017-11-17T08:54:47.395Z,2256
2017-11-17T08:55:49.274Z,2356
2017-11-17T08:56:51.159Z,2392
2017-11-17T08:57:53.043Z,2256
2017-11-17T08:58:54.859Z,2248
2017-11-17T08:59:56.681Z,2388
2017-11-17T09:00:58.563Z,2484
2017-11-17T09:02:00.444Z,2680
2017-11-17T09:03:02.327Z,2784
2017-11-17T09:04:16.480Z,2700
2017-11-17T09:05:18.364Z,2780
2017-11-17T09:06:20.247Z,2980
2017-11-17T09:07:22.132Z,3220
2017-11-17T09:08:23.952Z,3220
2017-11-17T09:09:25.771Z,3000
2017-11-17T09:10:27.652Z,2980
2017-11-17T09:11:29.536Z,3056
2017-11-17T09:12:31.417Z,2916
2017-11-17T09:13:45.621Z,2676
2017-11-17T09:14:47.500Z,2424
2017-11-17T09:15:49.383Z,2388
2017-11-17T09:16:51.263Z,2152
2017-11-17T09:17:53.081Z,2196
2017-11-17T09:18:54.901Z,1992
2017-11-17T09:19:56.781Z,1780
2017-11-17T09:20:58.663Z,1540
2017-11-17T09:22:00.543Z,1484
2017-11-17T09:23:14.695Z,1392
2017-11-17T09:24:16.577Z,1308
2017-11-17T09:25:18.459Z,1252
2017-11-17T09:26:20.344Z,1256
2017-11-17T09:27:22.159Z,1260
2017-11-17T09:28:23.976Z,1284
2017-11-17T09:29:25.858Z,1400
2017-11-17T09:30:27.739Z,1424
2017-11-17T09:31:29.618Z,1396
2017-11-17T09:32:43.771Z,1504
2017-11-17T09:33:45.652Z,1452
2017-11-17T09:34:47.534Z,1476
2017-11-17T09:35:49.448Z,1564
2017-11-17T09:36:51.286Z,1612
2017-11-17T09:37:53.085Z,1804
2017-11-17T09:38:54.967Z,1728
2017-11-17T09:39:56.848Z,1696
2017-11-17T09:40:58.731Z,1676
2017-11-17T09:42:12.884Z,1600
2017-11-17T09:43:14.763Z,1448
2017-11-17T09:44:16.647Z,1308
2017-11-17T09:45:18.529Z,1240
2017-11-17T09:46:20.347Z,1108
2017-11-17T09:47:22.167Z,1044
2017-11-17T09:48:24.048Z,1152
2017-11-17T09:49:25.929Z,1148
2017-11-17T09:50:27.810Z,1228
2017-11-17T09:51:42.012Z,1356
2017-11-17T09:52:43.893Z,1300
2017-11-17T09:53:45.776Z,1392
2017-11-17T09:54:47.661Z,1356
2017-11-17T09:55:49.497Z,1332
2017-11-17T09:56:51.301Z,1288
2017-11-17T09:57:53.182Z,1236
2017-11-17T09:58:55.063Z,1196
2017-11-17T09:59:56.944Z,1144
2017-11-17T10:01:11.096Z,1116
2017-11-17T10:02:12.976Z,1140
2017-11-17T10:03:14.861Z,1276
2017-11-17T10:04:16.743Z,1368
2017-11-17T10:05:18.560Z,1508
2017-11-17T10:06:20.379Z,1728
2017-11-17T10:07:22.257Z,1868
2017-11-17T10:08:24.137Z,1992
2017-11-17T10:09:26.022Z,2128
2017-11-17T10:10:40.179Z,2376
2017-11-17T10:11:42.060Z,2560
2017-11-17T10:12:43.949Z,2812
2017-11-17T10:13:45.832Z,2900
2017-11-17T10:14:47.656Z,2840
2017-11-17T10:15:49.475Z,2736
2017-11-17T10:16:51.357Z,2588
2017-11-17T10:17:53.239Z,2480
2017-11-17T10:18:55.128Z,2268
2017-11-17T10:20:09.277Z,2352
2017-11-17T10:21:11.154Z,2444
2017-11-17T10:22:13.042Z,2424
2017-11-17T10:23:14.921Z,2532
2017-11-17T10:24:16.739Z,2608
2017-11-17T10:25:18.558Z,2572
2017-11-17T10:26:20.437Z,2508
2017-11-17T10:27:22.318Z,2696
2017-11-17T10:28:24.204Z,2688
2017-11-17T10:29:38.356Z,3000
2017-11-17T10:30:40.237Z,3220
2017-11-17T10:31:42.124Z,3320
2017-11-17T10:32:44.006Z,3252
2017-11-17T10:33:45.825Z,3128
2017-11-17T10:34:47.645Z,3024
2017-11-17T10:35:49.526Z,2888
2017-11-17T10:36:51.370Z,2760
2017-11-17T10:37:53.188Z,2768
2017-11-17T10:39:07.341Z,2568
2017-11-17T10:40:09.222Z,2484
2017-11-17T10:41:11.109Z,2632
2017-11-17T10:42:12.990Z,2912
2017-11-17T10:43:14.810Z,3228
2017-11-17T10:44:16.630Z,3216
2017-11-17T10:45:18.510Z,2924
2017-11-17T10:46:20.396Z,2724
2017-11-17T10:47:22.277Z,2632
2017-11-17T10:48:36.431Z,2572
2017-11-17T10:49:38.310Z,2372
2017-11-17T10:50:40.196Z,2308
2017-11-17T10:51:42.079Z,2240
2017-11-17T10:52:43.897Z,2368
2017-11-17T10:53:45.714Z,2368
2017-11-17T10:54:47.597Z,2300
2017-11-17T10:55:49.481Z,2356
2017-11-17T10:56:51.322Z,2476
2017-11-17T10:58:05.483Z,2564
2017-11-17T10:59:07.354Z,2400
2017-11-17T11:00:09.237Z,2240
2017-11-17T11:01:11.120Z,2256
2017-11-17T11:02:12.943Z,2336
2017-11-17T11:03:14.760Z,2272
2017-11-17T11:04:16.643Z,2456
2017-11-17T11:05:18.527Z,2492
2017-11-17T11:06:20.408Z,2252
2017-11-17T11:07:34.561Z,2340
2017-11-17T11:08:36.442Z,2220
2017-11-17T11:09:38.327Z,2252
2017-11-17T11:10:40.210Z,2376
2017-11-17T11:11:42.029Z,2644
2017-11-17T11:12:43.848Z,2692
2017-11-17T11:13:45.694Z,2800
2017-11-17T11:14:47.509Z,2620
2017-11-17T11:15:49.325Z,2528
2017-11-17T11:17:03.517Z,2496
2017-11-17T11:18:05.401Z,2756
2017-11-17T11:19:07.285Z,3012
2017-11-17T11:20:09.171Z,3216
2017-11-17T11:21:10.991Z,3192
2017-11-17T11:22:12.812Z,3728
2017-11-17T11:23:14.694Z,3860
2017-11-17T11:24:16.582Z,3584
2017-11-17T11:25:18.466Z,3292
2017-11-17T11:26:32.620Z,3400
2017-11-17T11:27:34.531Z,3164
2017-11-17T11:28:36.414Z,3140
2017-11-17T11:29:38.301Z,3232
2017-11-17T11:30:40.120Z,2988
2017-11-17T11:31:41.940Z,3108
2017-11-17T11:32:43.848Z,3308
2017-11-17T11:33:45.711Z,3216
2017-11-17T11:34:47.531Z,3204
2017-11-17T11:36:01.683Z,2964
2017-11-17T11:37:03.566Z,3140
2017-11-17T11:38:05.449Z,2708
2017-11-17T11:39:07.336Z,2620
2017-11-17T11:40:09.153Z,2924
2017-11-17T11:41:10.977Z,2816
2017-11-17T11:42:12.860Z,3240
2017-11-17T11:43:14.753Z,3508
2017-11-17T11:44:16.626Z,3644
2017-11-17T11:45:30.830Z,4668
2017-11-17T11:46:32.721Z,4988
2017-11-17T11:47:34.605Z,4428
2017-11-17T11:48:36.484Z,5060
2017-11-17T11:49:38.303Z,4844
2017-11-17T11:50:40.124Z,4484
2017-11-17T11:51:42.006Z,4464
2017-11-17T11:52:43.888Z,4776
2017-11-17T11:53:45.771Z,4596
2017-11-17T11:54:59.929Z,3676
2017-11-17T11:56:01.812Z,3760
2017-11-17T11:57:03.696Z,3552
2017-11-17T11:58:05.580Z,3424
2017-11-17T11:59:07.399Z,3636
2017-11-17T12:00:09.220Z,3304
2017-11-17T12:01:11.105Z,2904
2017-11-17T12:02:12.990Z,2840
2017-11-17T12:03:14.873Z,2812
2017-11-17T12:04:29.028Z,2556
2017-11-17T12:05:30.910Z,2368
2017-11-17T12:06:32.792Z,2264
2017-11-17T12:07:34.679Z,2444
2017-11-17T12:08:36.495Z,2384
2017-11-17T12:09:38.319Z,2176
2017-11-17T12:10:40.196Z,1988
2017-11-17T12:11:42.081Z,1992
2017-11-17T12:12:43.966Z,2280
2017-11-17T12:13:58.121Z,2816
2017-11-17T12:15:00.006Z,2680
2017-11-17T12:16:01.888Z,2512
2017-11-17T12:17:03.773Z,2416
2017-11-17T12:18:05.590Z,2532
2017-11-17T12:19:07.417Z,3112
2017-11-17T12:20:09.298Z,2628
2017-11-17T12:21:11.182Z,2420
2017-11-17T12:22:13.062Z,2056
2017-11-17T12:23:27.223Z,1656
2017-11-17T12:24:29.099Z,2000
2017-11-17T12:25:30.981Z,1716
2017-11-17T12:26:32.865Z,1624
2017-11-17T12:27:34.696Z,1744
2017-11-17T12:28:36.506Z,1548
2017-11-17T12:29:38.384Z,1500
2017-11-17T12:30:40.266Z,1480
2017-11-17T12:31:42.144Z,1480
2017-11-17T12:32:56.297Z,1676
2017-11-17T12:33:58.176Z,1484
2017-11-17T12:35:00.060Z,1496
2017-11-17T12:36:01.944Z,1356
2017-11-17T12:37:03.760Z,1344
2017-11-17T12:38:05.585Z,1228
2017-11-17T12:39:07.461Z,1308
2017-11-17T12:40:09.342Z,1408
2017-11-17T12:41:11.222Z,1280
2017-11-17T12:42:25.376Z,1780
2017-11-17T12:43:27.257Z,2252
2017-11-17T12:44:29.140Z,2332
2017-11-17T12:45:31.024Z,2336
2017-11-17T12:46:32.852Z,2444
2017-11-17T12:47:34.670Z,2380
2017-11-17T12:48:36.502Z,2168
2017-11-17T12:49:38.320Z,1940
2017-11-17T12:50:40.139Z,1680
2017-11-17T12:51:54.333Z,1356
2017-11-17T12:52:56.216Z,1336
2017-11-17T12:53:58.096Z,1272
2017-11-17T12:54:59.980Z,1288
2017-11-17T12:56:01.798Z,1452
2017-11-17T12:57:03.615Z,1164
2017-11-17T12:58:05.493Z,988
2017-11-17T12:59:07.373Z,888
2017-11-17T13:00:09.255Z,1148
2017-11-17T13:01:23.407Z,1084
2017-11-17T13:02:25.288Z,1188
2017-11-17T13:03:27.171Z,1320
2017-11-17T13:04:29.056Z,1200
2017-11-17T13:05:30.876Z,1048
2017-11-17T13:06:32.702Z,1244
2017-11-17T13:07:34.574Z,1532
2017-11-17T13:08:36.458Z,1852
2017-11-17T13:09:38.338Z,1940
2017-11-17T13:10:52.490Z,1496
2017-11-17T13:11:54.373Z,1452
2017-11-17T13:12:56.256Z,1404
2017-11-17T13:13:58.140Z,1452
2017-11-17T13:14:59.956Z,1436
2017-11-17T13:16:01.775Z,1224
2017-11-17T13:17:03.658Z,1096
2017-11-17T13:18:05.534Z,968
2017-11-17T13:19:07.413Z,960
2017-11-17T13:20:21.566Z,1084
2017-11-17T13:21:23.446Z,1144
2017-11-17T13:22:25.330Z,1156
2017-11-17T13:23:27.212Z,1252
2017-11-17T13:24:29.035Z,1344
2017-11-17T13:25:30.854Z,1332
2017-11-17T13:26:32.737Z,1296
2017-11-17T13:27:34.619Z,1352
2017-11-17T13:28:36.503Z,1428
2017-11-17T13:29:50.709Z,1400
2017-11-17T13:30:52.592Z,1304
2017-11-17T13:31:54.473Z,1252
2017-11-17T13:32:56.360Z,1224
2017-11-17T13:33:58.180Z,1148
2017-11-17T13:35:00.002Z,1152
2017-11-17T13:36:01.880Z,1212
2017-11-17T13:37:03.764Z,1252
2017-11-17T13:38:05.646Z,1276
2017-11-17T13:39:19.799Z,1248
2017-11-17T13:40:21.693Z,1280
2017-11-17T13:41:23.576Z,1284
2017-11-17T13:42:25.463Z,1268
2017-11-17T13:43:27.283Z,1208
2017-11-17T13:44:29.105Z,1116
2017-11-17T13:45:30.992Z,1040
2017-11-17T13:46:32.870Z,992
2017-11-17T13:47:34.758Z,996
2017-11-17T13:48:48.921Z,1088
2017-11-17T13:49:50.804Z,1228
2017-11-17T13:50:52.728Z,1388
2017-11-17T13:51:54.631Z,1564
2017-11-17T13:52:56.449Z,1784
2017-11-17T13:53:58.277Z,2068
2017-11-17T13:55:00.181Z,2336
2017-11-17T13:56:02.064Z,2476
2017-11-17T13:57:03.946Z,2564
2017-11-17T13:58:18.109Z,2604
2017-11-17T13:59:20.084Z,2600
2017-11-17T14:00:22.003Z,2600
2017-11-17T14:01:23.898Z,2560
2017-11-17T14:02:25.709Z,2540
2017-11-17T14:03:27.530Z,2576
2017-11-17T14:04:29.412Z,2572
2017-11-17T14:05:31.297Z,2524
2017-11-17T14:06:33.180Z,2404
2017-11-17T14:07:47.337Z,2268
2017-11-17T14:08:49.221Z,2188
2017-11-17T14:09:51.105Z,2168
2017-11-17T14:10:52.987Z,2180
2017-11-17T14:11:54.807Z,2192
2017-11-17T14:12:56.628Z,2172
2017-11-17T14:13:58.508Z,2096
2017-11-17T14:15:00.400Z,2016
2017-11-17T14:16:02.270Z,2004
2017-11-17T14:17:16.435Z,2012
2017-11-17T14:18:18.321Z,2008
2017-11-17T14:19:20.200Z,1988
2017-11-17T14:20:22.085Z,1964
2017-11-17T14:21:23.900Z,1940
2017-11-17T14:22:25.719Z,1908
2017-11-17T14:23:27.599Z,1876
2017-11-17T14:24:29.482Z,1848
2017-11-17T14:25:31.368Z,1824
2017-11-17T14:26:45.515Z,1784
2017-11-17T14:27:47.770Z,1748
2017-11-17T14:28:50.013Z,1708
2017-11-17T14:29:51.906Z,1664
2017-11-17T14:30:53.724Z,1624
2017-11-17T14:31:55.567Z,1580
2017-11-17T14:32:57.425Z,1540
2017-11-17T14:33:59.306Z,1492
2017-11-17T14:35:01.188Z,1448
2017-11-17T14:36:15.341Z,1396
2017-11-17T14:37:17.221Z,1356
2017-11-17T14:38:19.105Z,1324
2017-11-17T14:39:20.992Z,1284
2017-11-17T14:40:22.816Z,1248
2017-11-17T14:41:24.633Z,1212
2017-11-17T14:42:26.513Z,1176